Time;durP1;ratioP1;P1;durP2;ratioP2;P2;SDS_P1;SDS_P2;PMS_P1;PMS_P2;Temp;Humidity;BMP_temperature;BMP_pressure;BME280_temperature;BME280_humidity;BME280_pressure;Samples;Min_cycle;Max_cycle;Signal;HPM_P1;HPM_P2
2024/01/08 00:02:22;;;;;;;6.53;3.30;;;2.80;59.60;;;;;;5092749;28;20085;-74
2024/01/08 00:04:48;;;;;;;8.07;3.50;;;2.80;59.50;;;;;;5093825;28;20021;-74
2024/01/08 00:07:14;;;;;;;8.83;3.90;;;2.80;59.40;;;;;;5093329;28;20470;-74
2024/01/08 00:09:39;;;;;;;7.53;3.70;;;2.70;59.40;;;;;;5092773;28;20165;-74
2024/01/08 00:12:05;;;;;;;6.57;3.23;;;2.70;59.40;;;;;;5092878;28;20360;-74
2024/01/08 00:14:31;;;;;;;7.13;3.40;;;2.80;59.40;;;;;;5093049;28;20031;-74
2024/01/08 00:16:57;;;;;;;7.27;3.70;;;2.70;59.40;;;;;;5091534;28;20023;-74
2024/01/08 00:19:23;;;;;;;8.13;3.87;;;2.70;59.30;;;;;;5096183;28;20436;-74
2024/01/08 00:21:48;;;;;;;6.77;3.40;;;2.80;59.30;;;;;;5092592;28;20043;-74
2024/01/08 00:24:14;;;;;;;6.90;3.37;;;2.80;59.40;;;;;;5092706;28;20032;-74
2024/01/08 00:26:40;;;;;;;7.90;3.30;;;2.80;59.30;;;;;;5093598;28;20035;-74
2024/01/08 00:29:05;;;;;;;6.87;3.57;;;2.70;59.30;;;;;;5094871;28;20031;-75
2024/01/08 00:31:31;;;;;;;7.97;3.57;;;2.80;59.30;;;;;;5095699;28;20028;-74
2024/01/08 00:33:57;;;;;;;5.97;3.30;;;2.70;59.30;;;;;;5096630;28;20032;-74
2024/01/08 00:36:24;;;;;;;8.73;3.93;;;2.70;59.30;;;;;;5096193;28;20161;-74
2024/01/08 00:38:49;;;;;;;7.37;3.57;;;2.70;59.30;;;;;;5108925;28;20043;-74
2024/01/08 00:41:15;;;;;;;8.30;3.80;;;2.70;59.30;;;;;;5081826;28;20036;-74
2024/01/08 00:43:41;;;;;;;7.03;3.30;;;2.70;59.20;;;;;;5100070;28;20129;-74
2024/01/08 00:46:07;;;;;;;7.93;3.90;;;2.60;59.30;;;;;;5095371;28;20024;-74
2024/01/08 00:48:33;;;;;;;6.97;3.60;;;2.60;59.40;;;;;;5094446;28;20020;-74
2024/01/08 00:50:58;;;;;;;6.90;3.17;;;2.60;59.40;;;;;;5096609;28;20030;-74
2024/01/08 00:53:24;;;;;;;7.80;3.83;;;2.60;59.40;;;;;;5094657;28;20113;-74
2024/01/08 00:55:50;;;;;;;7.17;3.47;;;2.50;59.40;;;;;;5095105;28;20036;-74
2024/01/08 00:58:16;;;;;;;7.07;3.23;;;2.60;59.40;;;;;;5095435;28;20031;-75
2024/01/08 01:00:41;;;;;;;6.60;3.37;;;2.60;59.50;;;;;;5098372;28;20089;-74
2024/01/08 01:03:07;;;;;;;6.97;3.57;;;2.50;59.50;;;;;;5095876;28;20498;-74
2024/01/08 01:05:33;;;;;;;7.87;3.47;;;2.50;59.50;;;;;;5094742;28;20016;-74
2024/01/08 01:07:59;;;;;;;8.03;3.70;;;2.50;59.50;;;;;;5095588;28;20012;-74
2024/01/08 01:10:24;;;;;;;6.63;3.27;;;2.50;59.50;;;;;;5095032;28;20071;-74
2024/01/08 01:12:50;;;;;;;7.50;3.80;;;2.50;59.50;;;;;;5095715;28;20432;-74
2024/01/08 01:15:16;;;;;;;6.60;3.40;;;2.40;59.40;;;;;;5094731;28;20031;-74
2024/01/08 01:17:42;;;;;;;5.97;3.20;;;2.40;59.40;;;;;;5095881;28;20027;-74
2024/01/08 01:20:08;;;;;;;7.30;3.50;;;2.40;59.50;;;;;;5095591;28;20032;-74
2024/01/08 01:22:33;;;;;;;8.40;3.60;;;2.40;59.50;;;;;;5096114;28;20043;-74
2024/01/08 01:24:59;;;;;;;8.30;3.83;;;2.40;59.60;;;;;;5095770;28;20467;-74
2024/01/08 01:27:25;;;;;;;6.63;3.20;;;2.30;59.50;;;;;;5077529;28;20123;-74
2024/01/08 01:29:51;;;;;;;7.27;3.57;;;2.30;59.50;;;;;;5094397;28;20115;-74
2024/01/08 01:32:17;;;;;;;7.67;3.70;;;2.30;59.50;;;;;;5095472;28;20023;-74
2024/01/08 01:34:42;;;;;;;7.33;3.40;;;2.30;59.50;;;;;;5093961;28;20456;-74
2024/01/08 01:37:08;;;;;;;7.97;3.30;;;2.30;59.50;;;;;;5093891;28;20454;-74
2024/01/08 01:39:34;;;;;;;7.67;3.60;;;2.30;59.60;;;;;;5094021;28;20032;-74
2024/01/08 01:41:59;;;;;;;7.60;4.10;;;2.30;59.60;;;;;;5093426;28;20038;-74
2024/01/08 01:44:25;;;;;;;7.07;3.50;;;2.20;59.60;;;;;;5095052;28;20020;-74
2024/01/08 01:46:53;;;;;;;8.00;4.03;;;2.20;59.50;;;;;;5076318;28;20343;-74
2024/01/08 01:49:20;;;;;;;9.03;4.10;;;2.20;59.60;;;;;;5093063;28;20050;-74
2024/01/08 01:51:48;;;;;;;7.77;4.13;;;2.20;60.30;;;;;;5091807;28;20035;-74
2024/01/08 01:54:15;;;;;;;7.77;4.30;;;2.20;59.70;;;;;;5095044;28;20024;-74
2024/01/08 01:56:46;;;;;;;6.93;3.67;;;2.10;59.70;;;;;;5076215;28;20032;-74
2024/01/08 01:59:15;;;;;;;7.38;3.40;;;2.10;59.70;;;;;;5107763;28;20038;-74
2024/01/08 02:01:41;;;;;;;8.83;4.23;;;2.10;59.70;;;;;;5093424;28;20032;-74
2024/01/08 02:04:08;;;;;;;8.17;3.57;;;2.10;59.70;;;;;;5093718;28;20073;-74
2024/01/08 02:06:35;;;;;;;7.40;3.67;;;2.10;59.70;;;;;;5094823;28;20024;-74
2024/01/08 02:09:02;;;;;;;7.33;3.30;;;2.10;59.70;;;;;;5093125;28;20024;-74
2024/01/08 02:11:29;;;;;;;7.20;3.57;;;2.10;59.70;;;;;;5094890;28;20065;-74
2024/01/08 02:13:55;;;;;;;7.37;3.50;;;2.10;59.70;;;;;;5085158;28;20025;-74
2024/01/08 02:16:20;;;;;;;7.70;3.93;;;2.10;59.60;;;;;;5091545;28;20456;-74
2024/01/08 02:18:47;;;;;;;7.30;3.40;;;2.10;59.70;;;;;;5091898;28;20026;-74
2024/01/08 02:21:12;;;;;;;7.63;3.57;;;2.00;59.70;;;;;;5093273;28;20066;-74
2024/01/08 02:23:38;;;;;;;7.87;3.50;;;2.00;59.70;;;;;;5093499;28;20032;-74
2024/01/08 02:26:05;;;;;;;7.83;4.10;;;2.00;59.70;;;;;;5094407;28;20052;-74
2024/01/08 02:28:30;;;;;;;7.93;3.40;;;2.00;59.70;;;;;;5093310;28;20031;-74
2024/01/08 02:30:56;;;;;;;7.73;3.63;;;2.00;59.70;;;;;;5092445;28;20455;-74
2024/01/08 02:33:22;;;;;;;7.60;3.70;;;2.00;59.80;;;;;;5092835;28;20106;-74
2024/01/08 02:35:48;;;;;;;9.23;4.40;;;2.00;59.80;;;;;;5093973;28;20027;-74
2024/01/08 02:38:14;;;;;;;8.97;4.10;;;2.00;59.80;;;;;;5094252;28;20071;-74
2024/01/08 02:40:43;;;;;;;7.37;3.60;;;2.00;59.80;;;;;;5102553;28;20056;-74
2024/01/08 02:43:08;;;;;;;7.60;3.70;;;2.00;60.40;;;;;;5090183;28;20019;-74
2024/01/08 02:45:34;;;;;;;7.57;3.93;;;2.00;59.80;;;;;;5092859;28;20020;-74
2024/01/08 02:48:00;;;;;;;8.37;3.87;;;2.00;59.90;;;;;;5091006;28;20467;-74
2024/01/08 02:50:26;;;;;;;8.23;3.33;;;2.00;59.90;;;;;;5093101;28;20030;-74
2024/01/08 02:52:51;;;;;;;8.97;3.60;;;2.00;59.90;;;;;;5092184;28;20033;-74
2024/01/08 02:55:17;;;;;;;7.97;3.63;;;2.00;59.90;;;;;;5100930;28;20028;-74
2024/01/08 02:57:43;;;;;;;7.47;3.90;;;2.00;59.90;;;;;;5094051;28;20059;-74
2024/01/08 03:00:09;;;;;;;8.40;4.00;;;2.00;60.00;;;;;;5093988;28;20420;-74
2024/01/08 03:02:35;;;;;;;7.63;4.00;;;2.00;60.00;;;;;;5091553;28;20036;-74
2024/01/08 03:05:01;;;;;;;7.70;3.83;;;2.00;60.00;;;;;;5091472;28;20052;-74
2024/01/08 03:07:27;;;;;;;7.67;3.70;;;2.00;60.00;;;;;;5092275;28;20055;-74
2024/01/08 03:09:58;;;;;;;8.17;3.67;;;2.00;60.00;;;;;;5094210;28;20016;-74
2024/01/08 03:12:24;;;;;;;8.27;3.87;;;2.00;60.10;;;;;;5101013;28;20089;-74
2024/01/08 03:14:50;;;;;;;9.40;4.60;;;2.00;60.10;;;;;;5093767;28;20032;-74
2024/01/08 03:17:16;;;;;;;8.23;4.17;;;2.10;60.10;;;;;;5092709;28;20024;-74
2024/01/08 03:19:42;;;;;;;8.87;4.10;;;2.10;60.10;;;;;;5093334;28;20081;-74
2024/01/08 03:22:08;;;;;;;7.97;3.63;;;2.10;60.10;;;;;;5092102;28;20078;-74
2024/01/08 03:24:36;;;;;;;7.87;3.37;;;2.10;60.10;;;;;;5090956;28;20040;-74
2024/01/08 03:27:02;;;;;;;9.63;4.30;;;2.10;60.10;;;;;;5088771;28;20020;-74
2024/01/08 03:29:28;;;;;;;7.10;3.80;;;2.10;60.10;;;;;;5100080;28;20455;-74
2024/01/08 03:31:54;;;;;;;7.30;3.67;;;2.10;60.20;;;;;;5107841;28;20360;-74
2024/01/08 03:34:20;;;;;;;9.00;4.00;;;2.10;60.20;;;;;;5093057;28;20024;-74
2024/01/08 03:36:46;;;;;;;7.43;3.33;;;2.10;60.20;;;;;;5090800;28;20406;-74
2024/01/08 03:39:17;;;;;;;7.80;3.70;;;2.20;60.30;;;;;;5091518;28;20368;-74
2024/01/08 03:41:43;;;;;;;9.93;4.00;;;2.20;60.30;;;;;;5092167;28;20445;-74
2024/01/08 03:44:10;;;;;;;9.83;4.00;;;2.20;60.20;;;;;;5092802;28;20016;-74
2024/01/08 03:46:36;;;;;;;8.10;4.00;;;2.20;60.20;;;;;;5093257;28;20031;-74
2024/01/08 03:49:03;;;;;;;7.33;3.63;;;2.20;60.90;;;;;;5075558;28;20016;-74
2024/01/08 03:51:30;;;;;;;9.90;3.70;;;2.10;60.30;;;;;;5092701;28;20023;-74
2024/01/08 03:53:56;;;;;;;8.93;4.03;;;2.20;61.00;;;;;;5092810;28;20096;-74
2024/01/08 03:56:22;;;;;;;7.60;3.63;;;2.20;60.30;;;;;;5100237;28;20102;-74
2024/01/08 03:58:48;;;;;;;7.40;3.67;;;2.20;60.30;;;;;;5075196;28;20119;-74
2024/01/08 04:01:14;;;;;;;9.23;4.53;;;2.20;60.40;;;;;;5094773;28;20028;-74
2024/01/08 04:03:40;;;;;;;8.63;3.93;;;2.20;60.40;;;;;;5097376;28;20046;-74
2024/01/08 04:06:06;;;;;;;8.37;4.03;;;2.20;60.50;;;;;;5096275;28;20020;-74
2024/01/08 04:08:32;;;;;;;8.60;4.30;;;2.20;60.50;;;;;;5097234;28;20077;-74
2024/01/08 04:10:58;;;;;;;9.13;4.03;;;2.20;60.60;;;;;;5098246;28;20019;-74
2024/01/08 04:13:24;;;;;;;8.63;4.20;;;2.20;60.70;;;;;;5095881;28;20016;-74
2024/01/08 04:15:49;;;;;;;10.17;4.60;;;2.20;60.80;;;;;;5096415;28;20433;-74
2024/01/08 04:18:16;;;;;;;8.97;4.17;;;2.20;60.80;;;;;;5096362;28;20036;-74
2024/01/08 04:20:42;;;;;;;8.47;3.97;;;2.20;60.80;;;;;;5093091;28;20115;-74
2024/01/08 04:23:07;;;;;;;8.07;4.27;;;2.20;60.80;;;;;;5095245;28;20132;-74
2024/01/08 04:25:33;;;;;;;8.60;4.60;;;2.20;61.00;;;;;;5096579;28;20051;-74
2024/01/08 04:27:59;;;;;;;8.33;4.30;;;2.20;61.00;;;;;;5096875;28;20043;-74
2024/01/08 04:30:25;;;;;;;8.77;4.33;;;2.20;61.10;;;;;;5095511;28;20114;-74
2024/01/08 04:32:50;;;;;;;9.33;4.00;;;2.20;61.20;;;;;;5095253;28;20352;-74
2024/01/08 04:35:16;;;;;;;9.37;4.43;;;2.20;61.20;;;;;;5093641;28;20063;-74
2024/01/08 04:37:42;;;;;;;8.63;4.27;;;2.20;61.20;;;;;;5095544;28;20096;-74
2024/01/08 04:40:08;;;;;;;9.83;4.87;;;2.20;61.30;;;;;;5096332;28;20401;-74
2024/01/08 04:42:34;;;;;;;9.50;4.93;;;2.20;61.30;;;;;;5095396;28;20063;-74
2024/01/08 04:45:00;;;;;;;11.07;4.50;;;2.20;61.40;;;;;;5094897;28;20062;-74
2024/01/08 04:47:25;;;;;;;8.67;4.27;;;2.20;61.50;;;;;;5095287;28;20164;-74
2024/01/08 04:49:51;;;;;;;9.23;4.27;;;2.20;61.60;;;;;;5096470;28;20460;-74
2024/01/08 04:52:17;;;;;;;9.63;4.43;;;2.20;61.70;;;;;;5095341;28;20099;-74
2024/01/08 04:54:43;;;;;;;10.30;5.20;;;2.20;61.70;;;;;;5095121;28;20028;-74
2024/01/08 04:57:09;;;;;;;8.77;4.43;;;2.20;61.90;;;;;;5094905;28;20166;-74
2024/01/08 04:59:42;;;;;;;9.10;4.50;;;2.20;61.90;;;;;;5096208;28;20032;-74
2024/01/08 05:02:10;;;;;;;8.30;4.23;;;2.20;62.00;;;;;;5096046;28;20020;-74
2024/01/08 05:04:36;;;;;;;9.97;5.30;;;2.20;62.10;;;;;;5109284;28;20125;-74
2024/01/08 05:07:02;;;;;;;9.17;4.87;;;2.20;62.10;;;;;;5094486;28;20078;-74
2024/01/08 05:09:29;;;;;;;10.00;5.10;;;2.20;62.20;;;;;;5108699;28;20020;-74
2024/01/08 05:11:55;;;;;;;10.00;5.00;;;2.20;62.20;;;;;;5094450;28;20320;-74
2024/01/08 05:14:21;;;;;;;10.43;4.87;;;2.30;62.40;;;;;;5095175;28;20025;-74
2024/01/08 05:16:47;;;;;;;9.77;5.10;;;2.30;62.40;;;;;;5094635;28;20333;-74
2024/01/08 05:19:13;;;;;;;9.43;4.40;;;2.30;62.50;;;;;;5100979;28;20035;-74
2024/01/08 05:21:39;;;;;;;12.00;5.57;;;2.30;62.50;;;;;;5091852;28;20035;-74
2024/01/08 05:24:05;;;;;;;9.97;4.80;;;2.20;62.60;;;;;;5096556;28;20040;-74
2024/01/08 05:26:31;;;;;;;10.27;5.43;;;2.30;62.70;;;;;;5095324;28;20810;-74
2024/01/08 05:28:57;;;;;;;10.07;5.17;;;2.30;62.80;;;;;;5104086;28;20031;-74
2024/01/08 05:31:23;;;;;;;9.60;4.97;;;2.30;62.80;;;;;;5098886;28;20024;-74
2024/01/08 05:33:49;;;;;;;8.83;4.63;;;2.30;62.80;;;;;;5096324;28;20112;-74
2024/01/08 05:36:15;;;;;;;8.97;4.67;;;2.30;62.90;;;;;;5095134;28;20032;-74
2024/01/08 05:38:41;;;;;;;10.20;5.00;;;2.30;63.00;;;;;;5096378;28;20090;-74
2024/01/08 05:41:07;;;;;;;9.53;4.33;;;2.30;63.00;;;;;;5097246;28;20028;-74
2024/01/08 05:43:37;;;;;;;10.20;5.63;;;2.30;63.00;;;;;;5090958;28;20093;-74
2024/01/08 05:46:06;;;;;;;10.30;4.90;;;2.40;63.20;;;;;;5094358;28;20081;-74
2024/01/08 05:48:37;;;;;;;10.53;4.70;;;2.40;63.30;;;;;;5094792;28;20078;-74
2024/01/08 05:51:09;;;;;;;10.30;4.70;;;2.40;63.30;;;;;;5096167;28;20105;-74
2024/01/08 05:53:35;;;;;;;10.70;5.20;;;2.40;63.40;;;;;;5093776;28;20523;-74
2024/01/08 05:56:02;;;;;;;11.90;5.53;;;2.40;63.40;;;;;;5097378;28;20121;-74
2024/01/08 05:58:28;;;;;;;10.23;4.47;;;2.40;63.50;;;;;;5096380;28;20092;-74
2024/01/08 06:00:54;;;;;;;10.10;5.10;;;2.40;63.50;;;;;;5096328;28;20039;-74
2024/01/08 06:03:23;;;;;;;11.20;5.10;;;2.40;63.50;;;;;;5096435;28;20332;-74
2024/01/08 06:05:49;;;;;;;9.40;4.70;;;2.40;63.50;;;;;;5094471;28;20020;-74
2024/01/08 06:08:15;;;;;;;9.93;4.97;;;2.40;63.60;;;;;;5096122;28;20051;-74
2024/01/08 06:10:42;;;;;;;11.90;5.13;;;2.40;63.60;;;;;;5095161;28;20062;-74
2024/01/08 06:13:10;;;;;;;9.33;4.60;;;2.40;63.70;;;;;;5089492;28;20031;-74
2024/01/08 06:15:37;;;;;;;10.47;5.03;;;2.40;63.70;;;;;;5095206;28;20047;-73
2024/01/08 06:18:06;;;;;;;9.90;4.67;;;2.40;63.70;;;;;;5098697;28;20467;-74
2024/01/08 06:20:33;;;;;;;9.57;5.03;;;2.40;63.80;;;;;;5095937;28;20113;-74
2024/01/08 06:22:59;;;;;;;9.77;4.63;;;2.30;63.80;;;;;;5094190;28;20024;-74
2024/01/08 06:25:25;;;;;;;9.47;4.90;;;2.30;63.80;;;;;;5095539;28;20077;-74
2024/01/08 06:27:51;;;;;;;9.80;4.90;;;2.40;63.90;;;;;;5105215;28;20020;-74
2024/01/08 06:30:18;;;;;;;9.00;4.70;;;2.30;63.80;;;;;;5095003;28;20428;-74
2024/01/08 06:32:44;;;;;;;9.27;4.90;;;2.30;63.80;;;;;;5076893;28;20032;-74
2024/01/08 06:35:10;;;;;;;11.37;5.17;;;2.30;63.80;;;;;;5077370;28;20028;-74
2024/01/08 06:37:36;;;;;;;9.43;5.20;;;2.40;64.00;;;;;;5109869;28;20051;-74
2024/01/08 06:40:03;;;;;;;12.90;5.33;;;2.40;64.00;;;;;;5094866;28;20028;-74
2024/01/08 06:42:29;;;;;;;11.07;4.97;;;2.40;64.00;;;;;;5095247;28;20425;-74
2024/01/08 06:44:54;;;;;;;8.93;4.73;;;2.50;64.10;;;;;;5093891;28;20063;-74
2024/01/08 06:47:20;;;;;;;8.93;4.40;;;2.50;64.10;;;;;;5095094;28;20031;-74
2024/01/08 06:49:46;;;;;;;11.80;5.27;;;2.50;64.10;;;;;;5068634;28;20039;-73
2024/01/08 06:52:11;;;;;;;9.70;4.27;;;2.40;64.00;;;;;;5094118;28;20020;-74
2024/01/08 06:54:38;;;;;;;9.00;4.20;;;2.40;64.00;;;;;;5093707;28;20059;-74
2024/01/08 06:57:04;;;;;;;9.27;4.47;;;2.40;64.10;;;;;;5093859;28;20024;-74
2024/01/08 06:59:29;;;;;;;8.87;4.30;;;2.40;64.00;;;;;;5094889;28;20035;-74
2024/01/08 07:01:55;;;;;;;10.40;4.70;;;2.40;64.00;;;;;;5093463;28;20031;-74
2024/01/08 07:04:21;;;;;;;8.37;4.43;;;2.50;64.10;;;;;;5096407;28;20020;-74
2024/01/08 07:06:47;;;;;;;9.33;4.30;;;2.40;64.00;;;;;;5094354;28;20386;-74
2024/01/08 07:09:13;;;;;;;8.57;4.10;;;2.40;64.00;;;;;;5094648;28;20017;-74
2024/01/08 07:11:38;;;;;;;9.00;4.50;;;2.40;64.00;;;;;;5093675;28;20119;-74
2024/01/08 07:14:04;;;;;;;8.57;4.40;;;2.40;64.00;;;;;;5093766;28;20441;-74
2024/01/08 07:16:30;;;;;;;8.80;3.90;;;2.40;64.00;;;;;;5093963;28;20031;-74
2024/01/08 07:18:55;;;;;;;9.67;4.67;;;2.40;64.00;;;;;;5093235;28;20034;-74
2024/01/08 07:21:22;;;;;;;9.20;3.97;;;2.40;64.00;;;;;;5087879;28;20032;-74
2024/01/08 07:23:49;;;;;;;8.63;4.17;;;2.40;64.00;;;;;;5103257;28;20095;-74
2024/01/08 07:26:16;;;;;;;8.80;4.13;;;2.40;64.00;;;;;;5092496;28;20528;-74
2024/01/08 07:28:46;;;;;;;8.37;3.90;;;2.40;64.00;;;;;;5094390;28;20045;-74
2024/01/08 07:31:12;;;;;;;8.97;4.30;;;2.40;64.00;;;;;;5094352;28;20187;-74
2024/01/08 07:33:39;;;;;;;8.30;3.70;;;2.40;64.00;;;;;;5100598;28;20090;-74
2024/01/08 07:36:06;;;;;;;8.93;4.40;;;2.40;64.00;;;;;;5073008;28;20020;-74
2024/01/08 07:38:31;;;;;;;8.47;4.00;;;2.40;64.00;;;;;;5094221;28;20024;-74
2024/01/08 07:40:59;;;;;;;10.17;4.27;;;2.40;63.90;;;;;;5093973;28;20115;-73
2024/01/08 07:43:24;;;;;;;7.83;3.70;;;2.40;63.90;;;;;;5092629;28;20028;-71
2024/01/08 07:45:51;;;;;;;8.13;3.70;;;2.40;64.00;;;;;;5093814;28;20024;-74
2024/01/08 07:48:16;;;;;;;8.70;4.17;;;2.40;63.90;;;;;;5092665;28;20028;-73
2024/01/08 07:50:42;;;;;;;9.47;4.67;;;2.40;63.90;;;;;;5093840;28;20099;-73
2024/01/08 07:53:08;;;;;;;8.90;3.97;;;2.40;63.90;;;;;;5091885;28;20450;-73
2024/01/08 07:55:34;;;;;;;7.70;3.57;;;2.40;63.90;;;;;;5092773;28;20368;-73
2024/01/08 07:57:59;;;;;;;7.50;3.63;;;2.40;63.90;;;;;;5096106;28;20024;-72
2024/01/08 08:00:25;;;;;;;8.53;4.07;;;2.40;63.90;;;;;;5098378;28;20449;-72
2024/01/08 08:02:51;;;;;;;8.83;3.90;;;2.40;63.90;;;;;;5094927;28;20046;-73
2024/01/08 08:05:17;;;;;;;8.40;4.30;;;2.40;64.00;;;;;;5093379;28;20024;-72
2024/01/08 08:07:43;;;;;;;8.57;4.10;;;2.40;63.90;;;;;;5091967;28;20153;-71
2024/01/08 08:10:10;;;;;;;8.33;4.10;;;2.40;64.00;;;;;;5093679;28;20432;-71
2024/01/08 08:12:35;;;;;;;7.87;4.03;;;2.40;64.00;;;;;;5093273;28;20114;-71
2024/01/08 08:15:01;;;;;;;9.33;3.83;;;2.40;64.10;;;;;;5093006;28;20173;-72
2024/01/08 08:17:27;;;;;;;7.60;3.60;;;2.40;64.10;;;;;;5091781;28;20032;-72
2024/01/08 08:19:53;;;;;;;8.83;4.57;;;2.40;64.20;;;;;;5098124;28;20038;-71
2024/01/08 08:22:19;;;;;;;7.97;4.30;;;2.40;64.20;;;;;;5106518;28;20046;-71
2024/01/08 08:24:47;;;;;;;8.73;4.53;;;2.40;64.20;;;;;;5094435;28;20038;-71
2024/01/08 08:27:13;;;;;;;7.20;3.67;;;2.40;64.20;;;;;;5093823;28;20024;-71
2024/01/08 08:29:41;;;;;;;8.70;4.90;;;2.40;64.90;;;;;;5093663;28;20486;-72
2024/01/08 08:32:08;;;;;;;9.43;4.70;;;2.40;64.20;;;;;;5100633;28;20023;-72
2024/01/08 08:34:34;;;;;;;8.83;4.07;;;2.50;64.20;;;;;;5106356;28;20027;-72
2024/01/08 08:37:00;;;;;;;9.07;4.17;;;2.50;64.20;;;;;;5093993;28;20021;-72
2024/01/08 08:39:26;;;;;;;8.87;3.93;;;2.50;64.20;;;;;;5094543;28;20047;-72
2024/01/08 08:41:52;;;;;;;9.90;4.30;;;2.40;64.10;;;;;;5096438;28;20035;-72
2024/01/08 08:44:18;;;;;;;7.60;4.07;;;2.50;64.20;;;;;;5093320;28;20024;-72
2024/01/08 08:46:44;;;;;;;7.53;4.10;;;2.50;64.20;;;;;;5093833;28;20028;-71
2024/01/08 08:49:12;;;;;;;7.67;4.03;;;2.50;64.30;;;;;;5114073;28;20474;-73
2024/01/08 08:51:38;;;;;;;11.20;4.50;;;2.40;64.40;;;;;;5096258;28;20372;-73
2024/01/08 08:54:04;;;;;;;8.43;4.10;;;2.50;64.60;;;;;;5104969;28;20028;-72
2024/01/08 08:56:33;;;;;;;9.17;4.30;;;2.60;64.60;;;;;;5102129;28;20024;-71
2024/01/08 08:58:59;;;;;;;10.47;4.70;;;2.70;64.60;;;;;;5097131;28;20059;-72
2024/01/08 09:01:26;;;;;;;9.37;4.20;;;2.70;64.50;;;;;;5095687;28;20032;-74
2024/01/08 09:03:52;;;;;;;8.83;3.90;;;2.70;64.60;;;;;;5110500;28;20115;-73
2024/01/08 09:06:24;;;;;;;9.20;4.20;;;2.70;64.80;;;;;;5095300;28;20108;-72
2024/01/08 09:08:54;;;;;;;9.38;4.55;;;2.70;64.90;;;;;;5104178;28;20020;-72
2024/01/08 09:11:20;;;;;;;9.67;4.60;;;2.60;64.90;;;;;;5095953;28;20056;-72
2024/01/08 09:13:49;;;;;;;9.17;4.83;;;2.60;65.10;;;;;;5094718;28;20036;-72
2024/01/08 09:16:15;;;;;;;9.67;4.77;;;2.50;65.80;;;;;;5096265;28;20128;-73
2024/01/08 09:18:42;;;;;;;8.27;4.07;;;2.60;65.30;;;;;;5095420;28;20024;-70
2024/01/08 09:21:09;;;;;;;7.77;4.20;;;2.50;65.40;;;;;;5095453;28;20060;-70
2024/01/08 09:23:35;;;;;;;9.40;4.57;;;2.50;65.50;;;;;;5090839;28;20482;-71
2024/01/08 09:26:01;;;;;;;9.53;4.67;;;2.50;65.60;;;;;;5091816;28;20142;-72
2024/01/08 09:28:26;;;;;;;8.53;3.97;;;2.50;65.60;;;;;;5094151;28;20016;-72
2024/01/08 09:30:53;;;;;;;8.53;4.40;;;2.50;65.60;;;;;;5091956;28;20032;-70
2024/01/08 09:33:19;;;;;;;9.17;4.13;;;2.50;65.60;;;;;;5095887;28;20020;-74
2024/01/08 09:35:45;;;;;;;9.03;5.03;;;2.60;65.60;;;;;;5093411;28;20032;-73
2024/01/08 09:38:10;;;;;;;8.00;4.20;;;2.60;65.40;;;;;;5102372;28;20341;-73
2024/01/08 09:40:36;;;;;;;7.70;3.90;;;2.60;65.40;;;;;;5096328;28;20066;-73
2024/01/08 09:43:06;;;;;;;8.23;4.27;;;2.60;65.30;;;;;;5095338;28;20372;-74
2024/01/08 09:45:32;;;;;;;11.47;4.37;;;2.60;65.20;;;;;;5091854;28;20052;-72
2024/01/08 09:47:58;;;;;;;7.83;3.93;;;2.70;65.10;;;;;;5094580;28;20031;-74
2024/01/08 09:50:28;;;;;;;7.47;4.60;;;2.70;65.00;;;;;;5093625;28;20023;-73
2024/01/08 09:52:55;;;;;;;9.23;4.40;;;2.70;65.00;;;;;;5092316;28;20020;-73
2024/01/08 09:55:22;;;;;;;7.97;4.30;;;2.70;64.90;;;;;;5095647;28;20032;-73
2024/01/08 09:57:48;;;;;;;8.87;4.67;;;2.70;64.80;;;;;;5095483;28;20035;-72
2024/01/08 10:00:14;;;;;;;8.10;4.43;;;2.70;64.80;;;;;;5094397;28;20020;-72
2024/01/08 10:02:40;;;;;;;8.27;4.10;;;2.70;64.80;;;;;;5090383;28;20034;-71
2024/01/08 10:05:07;;;;;;;7.97;3.80;;;2.70;64.80;;;;;;5093748;28;20027;-73
2024/01/08 10:07:34;;;;;;;8.40;4.37;;;2.80;64.70;;;;;;5094303;28;20074;-72
2024/01/08 10:10:01;;;;;;;8.53;4.53;;;2.70;64.60;;;;;;5094457;28;20038;-72
2024/01/08 10:12:27;;;;;;;9.63;4.67;;;2.70;64.60;;;;;;5094992;28;20107;-72
2024/01/08 10:14:55;;;;;;;8.97;4.30;;;2.70;64.60;;;;;;5095384;28;20353;-71
2024/01/08 10:17:21;;;;;;;8.00;4.20;;;2.80;64.60;;;;;;5095374;28;20425;-72
2024/01/08 10:19:47;;;;;;;8.03;3.90;;;2.80;64.50;;;;;;5107069;28;20389;-73
2024/01/08 10:22:14;;;;;;;8.93;4.40;;;2.80;64.40;;;;;;5083215;28;20043;-73
2024/01/08 10:24:42;;;;;;;8.53;4.50;;;2.80;64.30;;;;;;5092409;28;20024;-73
2024/01/08 10:27:09;;;;;;;9.13;4.33;;;2.80;64.20;;;;;;5091457;28;20020;-73
2024/01/08 10:29:36;;;;;;;10.23;4.20;;;2.90;64.10;;;;;;5093064;28;20038;-73
2024/01/08 10:32:02;;;;;;;7.97;4.30;;;3.00;64.00;;;;;;5092239;28;20031;-73
2024/01/08 10:34:30;;;;;;;9.07;4.07;;;3.00;63.90;;;;;;5094521;28;20028;-73
2024/01/08 10:36:57;;;;;;;8.47;4.07;;;3.10;63.80;;;;;;5095083;28;20111;-75
2024/01/08 10:39:31;;;;;;;7.97;3.90;;;3.10;63.70;;;;;;5095928;28;20115;-74
2024/01/08 10:42:00;;;;;;;7.47;3.57;;;3.20;63.60;;;;;;5095788;28;20064;-73
2024/01/08 10:44:25;;;;;;;7.63;3.43;;;3.50;63.10;;;;;;5103731;28;20035;-73
2024/01/08 10:46:57;;;;;;;10.53;4.53;;;3.80;62.60;;;;;;5096936;28;20031;-73
2024/01/08 10:49:33;;;;;;;;;;;4.00;62.10;;;;;;5094066;28;20428;-73
2024/01/08 10:52:03;;;;;;;7.80;3.53;;;4.10;61.70;;;;;;5098945;28;19907;-74
2024/01/08 10:54:39;;;;;;;7.60;3.30;;;4.10;61.40;;;;;;5103838;28;20035;-73
2024/01/08 10:57:10;;;;;;;8.40;3.90;;;4.00;61.20;;;;;;5094603;28;20051;-74
2024/01/08 10:59:38;;;;;;;8.07;3.70;;;4.00;61.20;;;;;;5095570;28;20036;-73
2024/01/08 11:02:04;;;;;;;7.03;3.60;;;3.90;61.20;;;;;;5093531;28;20023;-73
2024/01/08 11:04:31;;;;;;;7.37;3.90;;;3.90;61.30;;;;;;5094263;28;20371;-73
2024/01/08 11:06:57;;;;;;;7.90;3.90;;;3.70;61.20;;;;;;5111327;28;20024;-73
2024/01/08 11:09:31;;;;;;;8.23;3.90;;;3.60;61.30;;;;;;5095205;28;20355;-73
2024/01/08 11:11:57;;;;;;;9.37;4.20;;;3.60;61.50;;;;;;5094297;28;20510;-73
2024/01/08 11:14:24;;;;;;;8.07;3.90;;;3.50;61.50;;;;;;5093708;28;20429;-74
2024/01/08 11:16:51;;;;;;;7.50;3.57;;;3.50;61.50;;;;;;5095006;28;20066;-74
2024/01/08 11:19:20;;;;;;;7.40;3.80;;;3.40;61.50;;;;;;5094307;28;20406;-74
2024/01/08 11:21:49;;;;;;;8.33;3.73;;;3.40;61.30;;;;;;5085176;28;20044;-74
2024/01/08 11:24:15;;;;;;;8.67;3.83;;;3.40;61.20;;;;;;5088762;28;20074;-74
2024/01/08 11:26:44;;;;;;;8.00;3.87;;;3.40;61.20;;;;;;5098864;28;20031;-74
2024/01/08 11:29:11;;;;;;;8.77;3.57;;;3.40;61.00;;;;;;5112365;28;20020;-74
2024/01/08 11:31:46;;;;;;;7.40;3.90;;;3.40;60.70;;;;;;5095181;28;20048;-74
2024/01/08 11:34:44;;;;;;;7.93;3.97;;;3.50;60.70;;;;;;5094274;28;20035;-74
2024/01/08 11:37:21;;;;;;;8.50;3.47;;;3.50;60.10;;;;;;5079879;28;20369;-74
2024/01/08 11:39:49;;;;;;;8.73;4.20;;;3.60;60.10;;;;;;5089734;28;20394;-74
2024/01/08 11:42:15;;;;;;;8.00;3.17;;;3.60;60.00;;;;;;5094819;28;20040;-74
2024/01/08 11:44:41;;;;;;;7.50;3.00;;;3.60;59.70;;;;;;5093921;28;20111;-74
2024/01/08 11:47:07;;;;;;;7.40;2.90;;;3.60;59.60;;;;;;5094077;28;20411;-74
2024/01/08 11:49:32;;;;;;;7.40;2.90;;;3.60;59.40;;;;;;5093786;28;20020;-74
2024/01/08 11:52:02;;;;;;;6.90;3.03;;;3.60;59.30;;;;;;5093553;28;20366;-74
2024/01/08 11:54:28;;;;;;;6.73;3.00;;;3.60;59.00;;;;;;5100820;28;20044;-74
2024/01/08 11:56:55;;;;;;;6.70;2.77;;;3.60;58.70;;;;;;5091261;28;20024;-74
2024/01/08 11:59:34;;;;;;;8.57;3.37;;;3.50;58.30;;;;;;5094292;28;20345;-74
2024/01/08 12:02:11;;;;;;;6.80;2.93;;;3.60;58.00;;;;;;5092178;28;20111;-75
2024/01/08 12:04:37;;;;;;;6.97;3.33;;;3.50;57.80;;;;;;5103224;28;20817;-75
2024/01/08 12:07:03;;;;;;;8.57;3.33;;;3.50;57.70;;;;;;5095646;28;20020;-74
2024/01/08 12:09:32;;;;;;;6.20;3.03;;;3.50;57.40;;;;;;5093276;28;20019;-74
2024/01/08 12:12:06;;;;;;;6.67;2.83;;;3.50;57.00;;;;;;5094269;28;20028;-72
2024/01/08 12:14:34;;;;;;;10.00;3.07;;;3.50;56.90;;;;;;5104860;28;20023;-74
2024/01/08 12:17:02;;;;;;;7.87;3.20;;;3.40;56.50;;;;;;5094592;28;20039;-73
2024/01/08 12:19:41;;;;;;;6.63;2.93;;;3.40;56.40;;;;;;5093449;28;20475;-73
2024/01/08 12:22:12;;;;;;;5.53;2.73;;;3.40;55.80;;;;;;5095217;28;20024;-73
2024/01/08 12:24:44;;;;;;;7.10;2.88;;;3.40;55.90;;;;;;5097337;28;20047;-73
2024/01/08 12:27:14;;;;;;;6.07;2.90;;;3.40;55.80;;;;;;5097658;28;20032;-73
2024/01/08 12:29:41;;;;;;;6.67;2.83;;;3.40;55.40;;;;;;5098460;28;20020;-73
2024/01/08 12:32:09;;;;;;;5.83;2.80;;;3.40;55.40;;;;;;5087241;28;20078;-74
2024/01/08 12:34:39;;;;;;;5.33;2.70;;;3.50;55.30;;;;;;5095081;28;20043;-73
2024/01/08 12:37:07;;;;;;;6.80;2.73;;;3.50;54.90;;;;;;5099345;28;20103;-74
2024/01/08 12:39:34;;;;;;;6.23;2.80;;;3.50;54.80;;;;;;5098065;28;20345;-73
2024/01/08 12:42:07;;;;;;;5.67;2.50;;;3.50;54.50;;;;;;5096236;28;20143;-74
2024/01/08 12:44:33;;;;;;;6.20;2.47;;;3.50;53.90;;;;;;5097380;28;20050;-74
2024/01/08 12:47:01;;;;;;;6.10;2.47;;;3.50;53.70;;;;;;5096953;28;20433;-75
2024/01/08 12:49:27;;;;;;;5.53;2.40;;;3.50;53.60;;;;;;5095464;28;20385;-73
2024/01/08 12:51:54;;;;;;;6.80;2.73;;;3.50;53.30;;;;;;5097288;28;20047;-73
2024/01/08 12:54:20;;;;;;;6.67;2.80;;;3.50;53.10;;;;;;5099540;28;20032;-72